Time;durP1;ratioP1;P1;durP2;ratioP2;P2;SDS_P1;SDS_P2;PMS_P1;PMS_P2;Temp;Humidity;BMP_temperature;BMP_pressure;BME280_temperature;BME280_humidity;BME280_pressure;Samples;Min_cycle;Max_cycle;Signal;HPM_P1;HPM_P2
2022/06/08 00:02:04;;;;;;;1.17;0.40;;;;;;;16.39;100.00;99427.25;1706710;81;20937;-53
2022/06/08 00:04:30;;;;;;;1.20;0.40;;;;;;;16.39;100.00;99419.11;1710083;82;20927;-53
2022/06/08 00:06:57;;;;;;;1.60;0.40;;;;;;;16.39;100.00;99422.69;1708322;82;20920;-56
2022/06/08 00:09:23;;;;;;;1.27;0.50;;;;;;;16.36;100.00;99424.27;1711729;82;21577;-53
2022/06/08 00:11:51;;;;;;;0.72;0.50;;;;;;;16.34;100.00;99428.08;1708198;82;20959;-56
2022/06/08 00:14:17;;;;;;;2.17;0.40;;;;;;;16.31;100.00;99429.20;1713380;81;20988;-53
2022/06/08 00:16:45;;;;;;;0.60;0.40;;;;;;;16.30;100.00;99426.60;1712364;82;21484;-54
2022/06/08 00:19:12;;;;;;;2.25;0.40;;;;;;;16.28;100.00;99422.64;1709652;82;22858;-53
2022/06/08 00:21:40;;;;;;;2.15;0.40;;;;;;;16.30;100.00;99426.11;1711161;82;21189;-53
2022/06/08 00:24:07;;;;;;;0.40;0.30;;;;;;;16.33;100.00;99425.89;1716088;80;21117;-52
2022/06/08 00:26:36;;;;;;;0.47;0.45;;;;;;;16.36;100.00;99426.98;1735387;80;21092;-54
2022/06/08 00:29:06;;;;;;;0.60;0.40;;;;;;;16.39;100.00;99427.25;1728645;80;21068;-56
2022/06/08 00:31:33;;;;;;;0.57;0.50;;;;;;;16.41;100.00;99422.09;1734884;80;21181;-54
2022/06/08 00:33:59;;;;;;;1.27;0.50;;;;;;;16.41;100.00;99423.45;1734106;80;21233;-53
2022/06/08 00:38:45;;;;;;;2.83;0.50;;;;;;;16.44;100.00;99413.67;1804016;77;23888;-53
2022/06/08 00:41:44;;;;;;;4.00;0.50;;;;;;;16.39;100.00;99417.75;1770712;79;21029;-53
2022/06/08 00:44:22;;;;;;;1.07;0.50;;;;;;;16.38;100.00;99412.80;1774360;79;21552;-54
2022/06/08 00:46:50;;;;;;;0.95;0.50;;;;;;;16.35;100.00;99410.31;1776736;79;21060;-53
2022/06/08 00:49:31;;;;;;;2.77;0.65;;;;;;;16.32;100.00;99414.64;1775032;79;20994;-53
2022/06/08 00:51:59;;;;;;;2.05;0.50;;;;;;;16.30;100.00;99407.10;1769034;79;20986;-54
2022/06/08 00:54:33;;;;;;;0.93;0.40;;;;;;;16.26;100.00;99414.61;1772615;79;21585;-53
2022/06/08 00:57:17;;;;;;;2.85;0.90;;;;;;;16.26;100.00;99412.38;1766182;78;21092;-53
2022/06/08 01:00:04;;;;;;;2.93;0.60;;;;;;;16.24;100.00;99405.73;1742052;79;21037;-53
2022/06/08 01:02:31;;;;;;;1.62;0.50;;;;;;;16.24;100.00;99413.88;1654218;83;21316;-53
2022/06/08 01:05:23;;;;;;;0.75;0.60;;;;;;;16.23;100.00;99409.43;1697843;82;21066;-54
2022/06/08 01:07:54;;;;;;;0.60;0.50;;;;;;;16.22;100.00;99409.54;1698971;82;21063;-57
2022/06/08 01:10:25;;;;;;;3.00;0.68;;;;;;;16.22;100.00;99411.77;1694966;82;21116;-57
2022/06/08 01:12:56;;;;;;;0.93;0.60;;;;;;;16.19;100.00;99414.70;1707224;82;21156;-57
2022/06/08 01:15:26;;;;;;;1.75;0.80;;;;;;;16.18;100.00;99418.89;1703497;82;21646;-57
2022/06/08 01:17:53;;;;;;;2.12;0.60;;;;;;;16.15;100.00;99415.07;1672829;82;21096;-57
2022/06/08 01:20:20;;;;;;;3.00;0.60;;;;;;;16.12;100.00;99412.09;1702020;82;21092;-57
2022/06/08 01:22:47;;;;;;;0.90;0.65;;;;;;;16.09;100.00;99409.59;1702894;82;21188;-56
2022/06/08 01:25:15;;;;;;;0.98;0.50;;;;;;;16.05;100.00;99414.03;1693647;82;21124;-57
2022/06/08 01:28:18;;;;;;;1.52;0.70;;;;;;;16.03;100.00;99411.92;1705272;82;21480;-56
2022/06/08 01:30:53;;;;;;;0.75;0.60;;;;;;;16.01;100.00;99415.23;1697463;82;21144;-57
2022/06/08 01:33:34;;;;;;;2.72;0.57;;;;;;;16.01;100.00;99415.23;1700243;82;21148;-57
2022/06/08 01:36:27;;;;;;;0.70;0.60;;;;;;;16.00;100.00;99410.30;1705063;82;22504;-57
2022/06/08 01:39:26;;;;;;;2.62;0.60;;;;;;;16.00;100.00;99408.94;1703719;81;21065;-58
2022/06/08 01:42:22;;;;;;;0.68;0.60;;;;;;;15.99;100.00;99409.91;1707598;81;21162;-58
2022/06/08 01:48:16;;;;;;;2.20;0.90;;;;;;;15.94;100.00;99416.69;1674863;82;21126;-57
2022/06/08 01:50:55;;;;;;;1.12;0.60;;;;;;;15.90;100.00;99412.00;1606835;87;21230;-57
2022/06/08 01:53:54;;;;;;;1.12;0.62;;;;;;;15.86;100.00;99407.28;1681349;81;21128;-58
2022/06/08 01:56:35;;;;;;;1.77;0.50;;;;;;;15.84;100.00;99404.30;1683757;82;21112;-57
2022/06/08 01:59:24;;;;;;;0.90;0.60;;;;;;;15.80;100.00;99408.23;1686172;82;21830;-57
2022/06/08 02:02:12;;;;;;;0.82;0.50;;;;;;;15.76;100.00;99412.14;1687241;82;21119;-57
2022/06/08 02:05:03;;;;;;;3.15;0.65;;;;;;;15.73;100.00;99415.11;1687610;82;23364;-57
2022/06/08 02:07:43;;;;;;;0.60;0.50;;;;;;;15.71;100.00;99408.44;1684123;82;20898;-57
2022/06/08 02:10:40;;;;;;;2.15;0.60;;;;;;;15.71;100.00;99412.50;1682647;82;21135;-57
2022/06/08 02:13:13;;;;;;;2.02;0.68;;;;;;;15.71;100.00;99412.50;1684621;84;22376;-57
2022/06/08 02:15:43;;;;;;;0.80;0.65;;;;;;;15.67;100.00;99425.91;1678107;83;21096;-58
2022/06/08 02:18:24;;;;;;;1.32;0.60;;;;;;;15.64;100.00;99423.94;1685859;82;21136;-57
2022/06/08 02:20:56;;;;;;;0.90;0.60;;;;;;;15.61;100.00;99428.22;1680729;83;21130;-58
2022/06/08 02:23:54;;;;;;;1.00;0.70;;;;;;;15.59;100.00;99424.25;1680827;82;21131;-57
2022/06/08 02:26:31;;;;;;;0.70;0.53;;;;;;;15.60;100.00;99430.55;1629156;84;21170;-57
2022/06/08 02:29:13;;;;;;;2.95;0.70;;;;;;;15.58;100.00;99427.08;1681370;82;21060;-57
2022/06/08 02:31:54;;;;;;;0.72;0.50;;;;;;;15.53;100.00;99427.39;1681999;83;21253;-57
2022/06/08 02:34:34;;;;;;;0.70;0.55;;;;;;;15.52;100.00;99431.09;1680223;82;21108;-57
2022/06/08 02:37:19;;;;;;;1.42;0.57;;;;;;;15.54;100.00;99429.17;1680941;82;21439;-57
2022/06/08 02:40:18;;;;;;;1.52;0.37;;;;;;;15.60;100.00;99426.48;1678722;83;21124;-57
2022/06/08 02:42:53;;;;;;;1.57;0.42;;;;;;;15.65;100.00;99431.93;1671092;83;21100;-57
2022/06/08 02:45:25;;;;;;;1.82;0.60;;;;;;;15.70;100.00;99427.54;1671102;83;21543;-58
2022/06/08 02:47:54;;;;;;;0.70;0.50;;;;;;;15.73;100.00;99429.55;1660993;83;20934;-57
2022/06/08 02:50:23;;;;;;;0.55;0.40;;;;;;;15.79;100.00;99428.21;1673541;83;20953;-57
2022/06/08 02:52:52;;;;;;;2.40;0.47;;;;;;;15.81;100.00;99431.20;1680823;83;21009;-57
2022/06/08 02:55:31;;;;;;;3.20;0.40;;;;;;;15.86;100.00;99436.27;1677715;83;21029;-57
2022/06/08 02:58:03;;;;;;;1.12;0.50;;;;;;;15.89;100.00;99433.33;1679298;83;21052;-58
2022/06/08 03:00:37;;;;;;;1.25;0.80;;;;;;;15.94;100.00;99435.69;1675262;84;20926;-57
2022/06/08 03:03:12;;;;;;;2.22;0.40;;;;;;;15.97;100.00;99438.18;1675270;83;20898;-57
2022/06/08 03:05:53;;;;;;;1.57;0.90;;;;;;;15.99;100.00;99437.59;1669987;83;21001;-57
2022/06/08 03:08:26;;;;;;;0.80;0.40;;;;;;;16.05;100.00;99434.39;1678178;83;21757;-57
2022/06/08 03:10:53;;;;;;;0.82;0.47;;;;;;;16.10;100.00;99434.41;1676581;83;21068;-57
2022/06/08 03:18:06;;;;;;;0.55;0.40;;;;;;;16.24;100.00;99436.97;1676060;83;21250;-57
2022/06/08 03:23:06;;;;;;;0.63;0.50;;;;;;;16.42;100.00;99421.56;1853619;75;24739;-56
2022/06/08 03:25:36;;;;;;;3.30;0.42;;;;;;;16.43;100.00;99424.17;1815502;77;21482;-56
2022/06/08 03:32:16;;;;;;;0.57;0.50;;;;;;;16.56;100.00;99420.89;1814606;77;20949;-56
2022/06/08 03:34:44;;;;;;;0.50;0.40;;;;;;;16.62;100.00;99417.72;1781239;78;21441;-56
2022/06/08 03:37:12;;;;;;;0.60;0.45;;;;;;;16.69;100.00;99424.89;1775002;78;21463;-56
2022/06/08 03:39:40;;;;;;;1.07;0.40;;;;;;;16.76;100.00;99422.58;1776946;78;20999;-57
2022/06/08 03:42:08;;;;;;;1.80;0.50;;;;;;;16.86;100.00;99422.20;1775479;78;21951;-56
2022/06/08 03:44:36;;;;;;;2.25;0.53;;;;;;;16.94;100.00;99423.81;1774020;78;21000;-56
2022/06/08 03:47:09;;;;;;;2.00;0.40;;;;;;;17.05;100.00;99421.11;1779274;78;21711;-56
2022/06/08 03:49:36;;;;;;;0.37;0.37;;;;;;;17.16;100.00;99425.20;1740881;80;21107;-56
2022/06/08 04:00:08;;;;;;;1.90;0.40;;;;;;;17.52;100.00;99419.14;1747211;80;21312;-57
2022/06/08 04:02:37;;;;;;;1.05;0.50;;;;;;;17.69;100.00;99422.73;1723585;81;21091;-58
2022/06/08 04:05:06;;;;;;;0.53;0.40;;;;;;;17.81;100.00;99426.27;1722330;80;21048;-57
2022/06/08 04:07:33;;;;;;;0.40;0.40;;;;;;;17.90;100.00;99430.46;1749012;80;22438;-57
2022/06/08 04:10:00;;;;;;;2.22;0.40;;;;;;;17.99;100.00;99420.66;1748819;80;21132;-57
2022/06/08 04:12:28;;;;;;;0.40;0.30;;;;;;;18.09;100.00;99427.06;1749721;80;21079;-57
2022/06/08 04:14:55;;;;;;;1.22;0.40;;;;;;;18.18;100.00;99432.23;1744900;80;21064;-57
2022/06/08 04:17:24;;;;;;;1.10;0.40;;;;;;;18.26;100.00;99425.14;1735825;80;21548;-57
2022/06/08 04:19:51;;;;;;;0.50;0.40;;;;;;;18.35;100.00;99431.17;1734473;80;21547;-57
2022/06/08 04:22:20;;;;;;;0.40;0.40;;;;;;;18.42;100.00;99421.97;1737803;80;21130;-57
2022/06/08 04:24:47;;;;;;;0.70;0.60;;;;;;;18.50;100.00;99427.63;1736165;80;20876;-58
2022/06/08 04:27:14;;;;;;;0.80;0.50;;;;;;;18.60;100.00;99430.46;1732548;80;21536;-58
2022/06/08 04:29:43;;;;;;;0.50;0.47;;;;;;;18.71;100.00;99431.77;1708447;81;21115;-58
2022/06/08 04:32:10;;;;;;;0.70;0.50;;;;;;;18.81;100.00;99421.27;1738857;80;21705;-58
2022/06/08 04:34:40;;;;;;;1.27;0.40;;;;;;;18.95;100.00;99423.30;1734967;80;21445;-57
2022/06/08 04:37:10;;;;;;;0.40;0.30;;;;;;;19.07;100.00;99426.30;1705048;80;20946;-58
2022/06/08 04:39:39;;;;;;;0.45;0.40;;;;;;;19.20;100.00;99426.46;1735252;80;21072;-58
2022/06/08 04:42:07;;;;;;;0.85;0.30;;;;;;;19.31;100.00;99424.11;1743420;80;21210;-57
2022/06/08 04:44:36;;;;;;;0.40;0.30;;;;;;;19.42;100.00;99424.03;1731652;80;21069;-59
2022/06/08 04:47:08;;;;;;;1.75;0.60;;;;;;;19.52;100.00;99425.47;1736951;80;21088;-58
2022/06/08 04:49:35;;;;;;;0.70;0.40;;;;;;;19.61;100.00;99432.83;1712429;80;21009;-57
2022/06/08 04:52:05;;;;;;;1.10;0.40;;;;;;;19.69;100.00;99434.86;1733169;80;21263;-59
2022/06/08 04:54:31;;;;;;;0.50;0.40;;;;;;;19.75;100.00;99433.79;1703718;81;21046;-58
2022/06/08 04:57:00;;;;;;;0.65;0.47;;;;;;;19.80;100.00;99434.25;1740649;80;21031;-59
2022/06/08 04:59:27;;;;;;;2.12;0.40;;;;;;;19.86;100.00;99435.05;1736421;80;21108;-58
2022/06/08 05:01:56;;;;;;;0.80;0.40;;;;;;;19.92;100.00;99431.75;1733181;80;22329;-58
2022/06/08 05:04:22;;;;;;;0.42;0.30;;;;;;;19.98;100.00;99431.71;1728381;80;21104;-59
2022/06/08 05:06:49;;;;;;;0.35;0.30;;;;;;;20.06;100.00;99441.42;1736744;80;21046;-60
2022/06/08 05:09:16;;;;;;;0.40;0.30;;;;;;;20.14;100.00;99431.15;1732637;80;21088;-63
2022/06/08 05:11:45;;;;;;;0.55;0.30;;;;;;;20.26;100.00;99431.36;1733244;80;21139;-55
2022/06/08 05:14:14;;;;;;;0.80;0.28;;;;;;;20.38;100.00;99431.63;1730145;80;21026;-58
2022/06/08 05:16:41;;;;;;;0.53;0.30;;;;;;;20.50;100.00;99428.25;1733912;80;21491;-56
2022/06/08 05:19:08;;;;;;;0.72;0.30;;;;;;;20.64;100.00;99427.80;1735697;80;21085;-57
2022/06/08 05:21:36;;;;;;;11.43;0.60;;;;;;;20.77;100.00;99428.34;1731797;80;21022;-59
2022/06/08 05:24:05;;;;;;;10.25;0.40;;;;;;;20.90;100.00;99430.28;1692884;81;21916;-58
2022/06/08 05:26:36;;;;;;;2.62;0.20;;;;;;;21.05;100.00;99427.44;1683413;82;21040;-58
2022/06/08 05:29:04;;;;;;;1.30;0.40;;;;;;;21.19;100.00;99427.48;1713090;81;20949;-57
2022/06/08 05:31:32;;;;;;;0.65;0.37;;;;;;;21.30;100.00;99427.31;1684353;82;21072;-58
2022/06/08 05:33:59;;;;;;;3.67;0.30;;;;;;;21.41;100.00;99423.53;1708569;81;21037;-58
2022/06/08 05:36:27;;;;;;;0.80;0.30;;;;;;;21.50;100.00;99422.13;1692560;83;21180;-58
2022/06/08 05:38:54;;;;;;;1.82;0.30;;;;;;;21.61;100.00;99419.67;1701673;82;21146;-58
2022/06/08 05:41:22;;;;;;;2.55;0.30;;;;;;;21.72;100.00;99426.83;1701938;82;20929;-58
2022/06/08 05:43:49;;;;;;;0.75;0.30;;;;;;;21.81;100.00;99425.92;1706180;82;20950;-59
2022/06/08 05:46:16;;;;;;;0.55;0.25;;;;;;;21.87;100.00;99420.68;1705928;82;20949;-57
2022/06/08 05:48:44;;;;;;;0.30;0.30;;;;;;;21.98;100.00;99422.89;1673681;82;21360;-58
2022/06/08 05:51:12;;;;;;;1.20;0.40;;;;;;;22.04;100.00;99433.23;1708854;82;21060;-58
2022/06/08 05:53:39;;;;;;;6.60;0.50;;;;;;;22.09;100.00;99429.02;1710164;81;21408;-57
2022/06/08 05:56:06;;;;;;;3.10;0.30;;;;;;;22.16;100.00;99423.27;1680915;83;21557;-57
2022/06/08 05:58:35;;;;;;;0.62;0.30;;;;;;;22.24;100.00;99421.13;1687846;82;20913;-57
2022/06/08 06:01:02;;;;;;;3.72;0.23;;;;;;;22.31;100.00;99422.21;1709361;81;21086;-57
2022/06/08 06:03:29;;;;;;;0.35;0.20;;;;;;;22.40;100.00;99417.67;1687322;82;20961;-59
2022/06/08 06:05:56;;;;;;;0.70;0.20;;;;;;;22.49;100.00;99410.73;1714516;81;21420;-58
2022/06/08 06:08:23;;;;;;;6.58;0.55;;;;;;;22.60;100.00;99413.75;1696662;82;20881;-58
2022/06/08 06:10:53;;;;;;;3.35;0.30;;;;;;;22.71;100.00;99411.27;1715613;81;21467;-58
2022/06/08 06:13:28;;;;;;;;;;;;;;;22.84;100.00;99407.63;1692393;82;22028;-56
2022/06/08 06:15:58;;;;;;;1.82;0.20;;;;;;;22.95;100.00;99406.86;1681429;83;20158;-59
2022/06/08 06:18:28;;;;;;;1.90;0.20;;;;;;;23.05;100.00;99404.52;1707447;81;22558;-56
2022/06/08 06:23:58;;;;;;;0.20;0.20;;;;;;;23.32;100.00;99405.19;1791299;78;28327;-57
2022/06/08 06:26:29;;;;;;;3.85;0.20;;;;;;;23.39;100.00;99398.55;1764771;79;21084;-57
2022/06/08 06:29:10;;;;;;;0.30;0.20;;;;;;;23.50;100.00;99405.65;1738465;79;21925;-54
2022/06/08 06:31:53;;;;;;;2.50;0.33;;;;;;;23.59;100.00;99399.17;1766068;79;20962;-57
2022/06/08 06:34:22;;;;;;;0.50;0.50;;;;;;;23.67;100.00;99389.07;1767572;79;21433;-56
2022/06/08 06:36:53;;;;;;;0.68;0.20;;;;;;;23.78;100.00;99407.16;1772802;79;21111;-57
2022/06/08 06:39:21;;;;;;;1.02;0.20;;;;;;;23.86;100.00;99398.07;1770571;79;21418;-58
2022/06/08 06:41:50;;;;;;;0.72;0.20;;;;;;;23.94;100.00;99394.83;1770717;79;20993;-58
2022/06/08 06:44:18;;;;;;;0.37;0.25;;;;;;;24.02;100.00;99396.74;1768897;79;20879;-56
2022/06/08 06:46:47;;;;;;;1.50;0.30;;;;;;;24.07;100.00;99392.45;1766555;79;21227;-57
2022/06/08 06:49:15;;;;;;;0.53;0.20;;;;;;;24.17;100.00;99396.42;1767780;79;21045;-54
2022/06/08 06:51:43;;;;;;;1.02;0.20;;;;;;;24.24;100.00;99398.91;1766304;79;21047;-54
2022/06/08 06:54:12;;;;;;;25.20;0.70;;;;;;;24.31;100.00;99392.20;1775560;79;21392;-59
2022/06/08 06:56:40;;;;;;;0.80;0.30;;;;;;;24.39;100.00;99397.20;1710735;82;20895;-59
2022/06/08 06:59:11;;;;;;;1.72;0.20;;;;;;;24.48;100.00;99396.17;1691670;83;21466;-58
2022/06/08 07:01:37;;;;;;;0.45;0.30;;;;;;;24.57;100.00;99394.28;1690790;83;21077;-58
2022/06/08 07:04:06;;;;;;;0.20;0.20;;;;;;;24.66;100.00;99396.01;1708408;81;21083;-57
2022/06/08 07:06:32;;;;;;;0.25;0.20;;;;;;;24.73;100.00;99390.16;1710999;81;21134;-57
2022/06/08 07:09:01;;;;;;;0.85;0.20;;;;;;;24.82;100.00;99393.77;1689356;83;21498;-57
2022/06/08 07:11:35;;;;;;;0.20;0.20;;;;;;;24.92;100.00;99394.99;1679544;83;21535;-57
2022/06/08 07:14:14;;;;;;;1.07;0.20;;;;;;;24.99;100.00;99392.74;1703686;81;21058;-59
2022/06/08 07:16:41;;;;;;;10.70;0.50;;;;;;;25.05;100.00;99385.15;1700956;82;21458;-58
2022/06/08 07:19:09;;;;;;;2.58;0.20;;;;;;;25.10;100.00;99388.73;1701771;82;21134;-58
2022/06/08 07:21:36;;;;;;;1.30;0.28;;;;;;;25.14;100.00;99389.61;1699020;82;21221;-60
2022/06/08 07:24:02;;;;;;;0.40;0.23;;;;;;;25.21;100.00;99392.00;1687391;82;21167;-58
2022/06/08 07:26:29;;;;;;;0.60;0.20;;;;;;;25.28;100.00;99392.14;1741441;80;21389;-58
2022/06/08 07:28:56;;;;;;;0.25;0.20;;;;;;;25.34;100.00;99390.59;1729426;80;21528;-58
2022/06/08 07:31:23;;;;;;;1.77;0.30;;;;;;;25.42;100.00;99393.33;1735082;80;21128;-59
2022/06/08 07:33:50;;;;;;;3.67;0.68;;;;;;;25.49;100.00;99396.56;1734956;80;21051;-57
2022/06/08 07:36:16;;;;;;;0.20;0.20;;;;;;;25.56;100.00;99388.44;1730479;80;21331;-59
2022/06/08 07:38:43;;;;;;;0.95;0.20;;;;;;;25.62;100.00;99389.99;1733718;80;21744;-57
2022/06/08 07:41:11;;;;;;;0.47;0.20;;;;;;;25.70;100.00;99392.37;1737350;80;21576;-56
2022/06/08 07:43:39;;;;;;;0.23;0.20;;;;;;;25.75;100.00;99394.08;1733507;80;21922;-58
2022/06/08 07:46:05;;;;;;;0.30;0.20;;;;;;;25.83;100.00;99388.53;1726639;80;21031;-59
2022/06/08 07:51:19;;;;;;;0.28;0.20;;;;;;;25.99;100.00;99395.33;1736988;80;21011;-59
2022/06/08 07:53:46;;;;;;;3.60;0.25;;;;;;;26.06;100.00;99392.19;1733585;80;21390;-57
2022/06/08 07:56:12;;;;;;;0.40;0.25;;;;;;;26.12;100.00;99389.21;1733516;80;21155;-59
2022/06/08 07:58:39;;;;;;;0.47;0.17;;;;;;;26.18;100.00;99394.88;1735852;80;21040;-60
2022/06/08 08:01:06;;;;;;;0.37;0.20;;;;;;;26.24;100.00;99388.63;1734576;80;21079;-58
2022/06/08 08:03:34;;;;;;;0.30;0.20;;;;;;;26.28;100.00;99385.89;1742289;80;21616;-58
2022/06/08 08:06:01;;;;;;;0.30;0.20;;;;;;;26.32;100.00;99387.74;1731045;80;21095;-58
2022/06/08 08:08:27;;;;;;;0.50;0.20;;;;;;;26.38;100.00;99385.62;1737279;80;21731;-59
2022/06/08 08:10:55;;;;;;;0.40;0.30;;;;;;;26.45;100.00;99388.52;1737494;80;21324;-58
2022/06/08 08:13:22;;;;;;;0.30;0.20;;;;;;;26.51;100.00;99390.02;1732925;80;22492;-58
2022/06/08 08:15:51;;;;;;;0.57;0.20;;;;;;;26.59;100.00;99384.44;1737795;80;21078;-58
2022/06/08 08:18:18;;;;;;;0.20;0.20;;;;;;;26.68;100.00;99389.36;1736701;80;21107;-59
2022/06/08 08:20:46;;;;;;;1.52;0.37;;;;;;;26.78;100.00;99389.97;1736349;80;21071;-59
2022/06/08 08:23:13;;;;;;;1.65;0.30;;;;;;;26.87;100.00;99383.33;1732225;80;21608;-60
2022/06/08 08:25:39;;;;;;;5.78;0.40;;;;;;;26.95;100.00;99387.95;1746271;80;21086;-58
2022/06/08 08:28:07;;;;;;;0.60;0.35;;;;;;;27.01;100.00;99381.66;1738054;80;21043;-58
2022/06/08 08:30:34;;;;;;;0.50;0.20;;;;;;;27.09;100.00;99388.48;1738116;80;21400;-59
2022/06/08 08:33:03;;;;;;;0.45;0.30;;;;;;;27.16;100.00;99385.82;1741751;80;22333;-61
2022/06/08 08:35:29;;;;;;;0.62;0.30;;;;;;;27.21;100.00;99380.61;1737173;80;21659;-60
2022/06/08 08:37:56;;;;;;;0.30;0.20;;;;;;;27.24;100.00;99374.68;1737871;80;21032;-58
2022/06/08 08:40:47;;;;;;;0.33;0.20;;;;;;;27.27;100.00;99373.79;1737400;80;21052;-58
2022/06/08 08:43:21;;;;;;;0.93;0.20;;;;;;;27.32;100.00;99379.59;1731681;80;21114;-58
2022/06/08 08:46:31;;;;;;;0.20;0.20;;;;;;;27.35;100.00;99375.08;1732844;80;21145;-58
2022/06/08 08:49:19;;;;;;;0.28;0.20;;;;;;;27.31;100.00;99375.63;1739072;80;21017;-58
2022/06/08 08:51:54;;;;;;;3.47;0.30;;;;;;;27.22;100.00;99367.13;1734762;80;21094;-59
2022/06/08 08:54:35;;;;;;;0.57;0.20;;;;;;;27.08;100.00;99365.53;1733646;80;20976;-59
2022/06/08 08:57:22;;;;;;;0.30;0.20;;;;;;;27.04;100.00;99364.20;1724164;80;21043;-57
2022/06/08 08:59:49;;;;;;;1.35;0.20;;;;;;;27.06;100.00;99363.47;1735889;80;21058;-59
2022/06/08 09:05:20;;;;;;;0.20;0.20;;;;;;;27.17;100.00;99359.39;1739216;80;21066;-57
2022/06/08 09:07:48;;;;;;;0.47;0.20;;;;;;;27.18;100.00;99358.87;1737843;80;21683;-60
2022/06/08 09:10:21;;;;;;;16.20;0.93;;;;;;;27.20;100.00;99358.16;1743004;80;21371;-59
2022/06/08 09:12:49;;;;;;;;;;;;;;;27.24;100.00;99355.34;1737037;80;21087;-58
2022/06/08 09:15:17;;;;;;;0.25;0.20;;;;;;;27.28;100.00;99360.31;1733955;80;20107;-59
2022/06/08 09:17:58;;;;;;;0.68;0.20;;;;;;;27.31;100.00;99363.20;1743392;80;20887;-59
2022/06/08 09:20:32;;;;;;;0.53;0.20;;;;;;;27.34;100.00;99355.92;1737149;80;21436;-59
2022/06/08 09:23:22;;;;;;;0.50;0.28;;;;;;;27.40;100.00;99354.63;1731666;80;20968;-58
2022/06/08 09:26:03;;;;;;;0.30;0.20;;;;;;;27.46;100.00;99354.41;1700913;82;21371;-58
2022/06/08 09:28:31;;;;;;;0.30;0.30;;;;;;;27.56;100.00;99356.36;1699896;82;20954;-57
2022/06/08 09:30:58;;;;;;;1.00;0.23;;;;;;;27.59;100.00;99354.59;1704217;82;20967;-57
2022/06/08 09:33:37;;;;;;;0.40;0.20;;;;;;;27.57;100.00;99350.30;1709057;81;20904;-58
2022/06/08 09:36:08;;;;;;;1.10;0.23;;;;;;;27.54;100.00;99352.09;1681663;82;20995;-57
2022/06/08 09:38:40;;;;;;;0.42;0.20;;;;;;;27.52;100.00;99347.23;1708178;83;21088;-59
2022/06/08 09:41:19;;;;;;;1.75;0.20;;;;;;;27.48;100.00;99346.23;1705782;82;20958;-60
2022/06/08 09:44:04;;;;;;;2.80;0.50;;;;;;;27.50;100.00;99351.57;1697403;81;21054;-60
2022/06/08 09:53:06;;;;;;;1.12;0.20;;;;;;;27.70;100.00;99349.11;1711513;82;21151;-58
2022/06/08 09:55:53;;;;;;;1.12;0.20;;;;;;;27.76;100.00;99345.04;1704782;82;20991;-60
2022/06/08 09:58:45;;;;;;;0.20;0.10;;;;;;;27.79;100.00;99341.90;1708574;82;20952;-57
2022/06/08 10:01:39;;;;;;;1.27;0.20;;;;;;;27.81;100.00;99339.80;1699131;82;21038;-60
2022/06/08 10:04:21;;;;;;;1.25;0.20;;;;;;;27.85;100.00;99338.34;1701111;82;21055;-60
2022/06/08 10:07:05;;;;;;;0.20;0.20;;;;;;;27.91;100.00;99333.94;1697110;82;21151;-60
2022/06/08 10:10:10;;;;;;;0.60;0.20;;;;;;;27.93;100.00;99335.12;1670652;84;21070;-61
2022/06/08 10:12:58;;;;;;;1.27;0.20;;;;;;;27.95;100.00;99323.34;1706449;83;21457;-58
2022/06/08 10:15:58;;;;;;;0.15;0.10;;;;;;;27.98;100.00;99318.30;1705783;82;21086;-58
2022/06/08 10:18:42;;;;;;;1.55;0.20;;;;;;;28.06;100.00;99320.08;1702614;83;21567;-59
2022/06/08 10:21:22;;;;;;;0.17;0.17;;;;;;;28.12;100.00;99318.76;1681282;83;21970;-61
2022/06/08 10:24:03;;;;;;;0.20;0.20;;;;;;;28.18;100.00;99313.84;1711195;81;21068;-60
2022/06/08 10:26:39;;;;;;;1.85;0.20;;;;;;;28.13;100.00;99314.09;1727623;81;21050;-60
2022/06/08 10:29:29;;;;;;;4.87;0.33;;;;;;;27.93;100.00;99314.38;1730134;81;21111;-58
2022/06/08 10:32:23;;;;;;;1.40;0.20;;;;;;;27.77;100.00;99316.34;1728430;81;21958;-64
2022/06/08 10:34:54;;;;;;;2.03;0.30;;;;;;;27.68;100.00;99312.50;1724912;81;21747;-61
2022/06/08 10:37:35;;;;;;;0.30;0.20;;;;;;;27.63;100.00;99313.09;1725680;81;22205;-58
2022/06/08 10:40:22;;;;;;;1.22;0.20;;;;;;;27.63;100.00;99317.23;1728802;81;21032;-57
2022/06/08 10:42:49;;;;;;;0.85;0.20;;;;;;;27.68;100.00;99306.44;1726918;81;22183;-62
2022/06/08 10:45:30;;;;;;;0.70;0.20;;;;;;;27.76;100.00;99311.00;1728076;81;21065;-59
2022/06/08 10:48:05;;;;;;;4.75;0.33;;;;;;;27.82;100.00;99301.91;1723001;81;21494;-58
2022/06/08 10:50:38;;;;;;;0.45;0.30;;;;;;;27.90;100.00;99303.73;1725380;81;21059;-57
2022/06/08 10:56:39;;;;;;;1.00;0.20;;;;;;;28.01;100.00;99299.91;1731291;81;21395;-63
2022/06/08 10:59:18;;;;;;;0.25;0.10;;;;;;;28.07;100.00;99296.90;1731297;81;21088;-60
2022/06/08 11:02:03;;;;;;;0.20;0.20;;;;;;;28.09;100.00;99297.01;1726382;81;21023;-60
2022/06/08 11:04:37;;;;;;;2.05;0.20;;;;;;;28.14;100.00;99296.44;1720887;81;21085;-59
2022/06/08 11:07:18;;;;;;;0.28;0.20;;;;;;;28.15;100.00;99291.23;1732919;81;21069;-59
2022/06/08 11:09:56;;;;;;;1.40;0.20;;;;;;;28.09;100.00;99297.01;1731550;81;21124;-59
2022/06/08 11:12:39;;;;;;;1.72;0.10;;;;;;;28.12;100.00;99292.48;1725504;81;21680;-60
2022/06/08 11:15:23;;;;;;;0.47;0.20;;;;;;;28.19;100.00;99293.95;1682184;81;21260;-60
2022/06/08 11:17:58;;;;;;;0.20;0.20;;;;;;;28.23;100.00;99286.45;1701910;81;21025;-60
2022/06/08 11:20:41;;;;;;;0.20;0.20;;;;;;;28.25;100.00;99287.61;1725387;81;21032;-61
2022/06/08 11:23:21;;;;;;;3.47;0.40;;;;;;;28.29;100.00;99297.77;1726385;81;21162;-60
2022/06/08 11:26:25;;;;;;;0.95;0.20;;;;;;;28.32;100.00;99290.47;1722706;81;21091;-60
2022/06/08 11:29:15;;;;;;;0.40;0.20;;;;;;;28.36;100.00;99285.70;1724110;81;21150;-60
2022/06/08 11:31:46;;;;;;;1.05;0.20;;;;;;;28.42;100.00;99279.89;1726896;81;21560;-62
2022/06/08 11:34:25;;;;;;;0.20;0.20;;;;;;;28.49;100.00;99286.37;1728828;81;21051;-60
2022/06/08 11:36:58;;;;;;;0.40;0.20;;;;;;;28.52;100.00;99281.27;1724626;81;21036;-62
2022/06/08 11:39:43;;;;;;;1.98;0.20;;;;;;;28.56;100.00;99276.20;1722025;81;21055;-61
2022/06/08 11:42:30;;;;;;;0.28;0.20;;;;;;;28.61;100.00;99271.76;1726926;81;21245;-61
2022/06/08 11:45:23;;;;;;;0.45;0.20;;;;;;;28.61;100.00;99275.91;1727183;81;21047;-58
2022/06/08 11:48:04;;;;;;;1.67;0.20;;;;;;;28.61;100.00;99273.14;1728211;81;21063;-58
2022/06/08 11:50:44;;;;;;;0.98;0.20;;;;;;;28.63;100.00;99269.33;1725260;81;21086;-61
2022/06/08 11:53:18;;;;;;;0.35;0.20;;;;;;;28.61;100.00;99262.59;1682229;83;21062;-60
2022/06/08 11:56:18;;;;;;;0.80;0.30;;;;;;;28.57;100.00;99262.16;1726697;81;21403;-59
2022/06/08 11:58:54;;;;;;;0.20;0.20;;;;;;;28.52;100.00;99256.88;1680505;81;21089;-62
2022/06/08 12:01:25;;;;;;;0.40;0.10;;;;;;;28.50;100.00;99259.84;1712873;81;21055;-59
2022/06/08 12:04:03;;;;;;;0.47;0.20;;;;;;;28.52;100.00;99260.50;1729631;81;21007;-60
2022/06/08 12:06:36;;;;;;;0.42;0.10;;;;;;;28.56;100.00;99255.44;1726120;81;21450;-58
2022/06/08 12:09:18;;;;;;;2.63;0.20;;;;;;;28.59;100.00;99254.48;1729081;81;21057;-59
2022/06/08 12:11:50;;;;;;;0.50;0.20;;;;;;;28.63;100.00;99254.09;1697509;81;21040;-60
2022/06/08 12:14:34;;;;;;;0.82;0.20;;;;;;;28.66;100.00;99253.70;1726848;81;21057;-58
2022/06/08 12:17:16;;;;;;;1.02;0.20;;;;;;;28.68;100.00;99254.33;1715809;81;21115;-60
2022/06/08 12:19:55;;;;;;;3.02;0.20;;;;;;;28.71;100.00;99252.02;1723151;81;21090;-60
2022/06/08 12:22:33;;;;;;;0.90;0.17;;;;;;;28.75;100.00;99255.27;1731125;81;22665;-56
2022/06/08 12:25:19;;;;;;;4.70;0.20;;;;;;;28.76;100.00;99258.33;1737560;80;21505;-58
2022/06/08 12:27:59;;;;;;;;;;;;;;;28.77;100.00;99254.53;1712828;82;20895;-58
2022/06/08 12:30:33;;;;;;;2.22;0.20;;;;;;;28.77;100.00;99247.61;1706836;82;20174;-55
2022/06/08 12:33:20;;;;;;;0.40;0.20;;;;;;;28.73;100.00;99237.45;1713154;82;21385;-59
2022/06/08 12:35:56;;;;;;;0.50;0.20;;;;;;;28.70;100.00;99250.84;1684418;83;21332;-55
2022/06/08 12:38:30;;;;;;;0.30;0.20;;;;;;;28.63;100.00;99243.02;1695381;82;20935;-61
2022/06/08 12:41:10;;;;;;;4.95;0.30;;;;;;;28.60;100.00;99242.88;1707168;82;21093;-54
2022/06/08 12:43:48;;;;;;;2.37;0.23;;;;;;;28.53;100.00;99235.92;1693104;83;21437;-54